Terminal Aerodrome Forecast
Issued by NWS

Home | Current Version | Previous Version | Text Only | Print | Product List | Glossary On
Versions: 1 2 3 4 5 6 7 8 9 10 11 12 13
000
FTUS45 KABQ 281743
TAFSAF
TAF
KSAF 281743Z 2818/2918 23008KT P6SM FEW090
     FM282300 02012KT P6SM SCT090
     FM290100 36008KT P6SM SCT090
     FM290400 03006KT P6SM FEW130=

USA.gov is the U.S. government's official web portal to all federal, state and local government web resources and services.